Time;durP1;ratioP1;P1;durP2;ratioP2;P2;SDS_P1;SDS_P2;PMS_P1;PMS_P2;Temp;Humidity;BMP_temperature;BMP_pressure;BME280_temperature;BME280_humidity;BME280_pressure;Samples;Min_cycle;Max_cycle;Signal;HPM_P1;HPM_P2
2023/09/14 00:00:56;;;;;;;;;0.00;0.00;;;;;28.84;41.36;101955.28;5036428;28;45247;-77
2023/09/14 00:03:21;;;;;;;;;0.00;0.00;;;;;28.88;40.89;101962.94;5036787;28;45604;-77
2023/09/14 00:05:49;;;;;;;;;1.00;1.00;;;;;28.84;41.49;101963.34;5036975;28;45372;-77
2023/09/14 00:08:15;;;;;;;;;1.67;1.00;;;;;28.88;41.50;101966.44;5018897;28;45356;-77
2023/09/14 00:10:41;;;;;;;;;0.33;0.33;;;;;28.88;41.19;101958.41;5036822;28;45440;-78
2023/09/14 00:13:08;;;;;;;;;2.00;2.00;;;;;28.85;41.11;101962.31;5036582;28;46438;-77
2023/09/14 00:15:34;;;;;;;;;1.00;1.00;;;;;28.90;41.19;101963.56;5036702;28;45487;-77
2023/09/14 00:18:00;;;;;;;;;1.00;1.00;;;;;28.85;41.25;101962.31;5036317;28;45350;-76
2023/09/14 00:20:27;;;;;;;;;1.33;0.33;;;;;28.82;41.19;101960.03;5036468;28;45379;-77
2023/09/14 00:22:55;;;;;;;;;1.00;1.00;;;;;28.87;41.28;101969.31;5036306;28;45300;-77
2023/09/14 00:25:21;;;;;;;;;1.67;0.00;;;;;28.87;41.44;101969.31;5036654;28;45365;-77
2023/09/14 00:27:47;;;;;;;;;2.67;1.00;;;;;28.82;40.91;101967.22;5036754;28;45427;-76
2023/09/14 00:30:13;;;;;;;;;1.00;1.00;;;;;28.88;41.71;101966.44;5036689;28;45330;-77
2023/09/14 00:32:40;;;;;;;;;2.33;0.33;;;;;28.84;41.30;101960.66;5036601;28;46572;-77
2023/09/14 00:35:12;;;;;;;;;0.67;0.67;;;;;28.84;41.14;101965.19;5036105;28;45455;-77
2023/09/14 00:37:38;;;;;;;;;0.67;0.33;;;;;28.85;41.52;101965.00;5036542;28;45458;-77
2023/09/14 00:40:09;;;;;;;;;1.00;1.00;;;;;28.87;41.31;101967.47;5036307;28;45262;-77
2023/09/14 00:42:45;;;;;;;;;2.00;1.00;;;;;28.85;41.17;101966.84;5023281;28;46900;-77
2023/09/14 00:45:16;;;;;;;;;0.00;0.00;;;;;28.84;41.23;101967.84;5033178;28;45424;-78
2023/09/14 00:47:44;;;;;;;;;0.00;0.00;;;;;28.87;41.30;101967.47;5036403;28;45512;-78
2023/09/14 00:50:10;;;;;;;;;2.00;2.00;;;;;28.89;41.48;101975.28;5036041;28;45532;-77
2023/09/14 00:52:37;;;;;;;;;2.67;1.00;;;;;28.85;41.69;101961.47;5035680;28;45299;-77
2023/09/14 00:55:07;;;;;;;;;0.00;0.00;;;;;28.83;41.47;101967.03;5036331;28;45352;-77
2023/09/14 00:57:33;;;;;;;;;0.00;0.00;;;;;28.84;41.36;101970.53;5036453;28;45425;-77
2023/09/14 00:59:59;;;;;;;;;1.00;1.00;;;;;28.79;41.66;101957.75;5034962;28;45316;-77
2023/09/14 01:02:26;;;;;;;;;1.00;1.00;;;;;28.83;41.25;101969.69;5035823;28;46740;-77
2023/09/14 01:04:53;;;;;;;;;2.00;1.00;;;;;28.85;41.59;101962.31;5035599;28;45514;-77
2023/09/14 01:07:18;;;;;;;;;0.00;0.00;;;;;28.83;41.36;101967.03;5036093;28;45316;-77
2023/09/14 01:09:44;;;;;;;;;2.00;1.00;;;;;28.88;41.17;101965.63;5036197;28;45403;-77
2023/09/14 01:12:10;;;;;;;;;1.00;1.00;;;;;28.76;41.16;101941.25;5035405;28;47865;-77
2023/09/14 01:14:49;;;;;;;;;2.00;0.00;;;;;28.90;41.52;101964.38;5036126;28;45663;-77
2023/09/14 01:17:26;;;;;;;;;1.00;1.00;;;;;28.84;41.44;101960.66;5035950;28;45292;-78
2023/09/14 01:20:21;;;;;;;;;1.00;1.00;;;;;28.87;41.47;101956.75;5035540;28;45326;-77
2023/09/14 01:23:05;;;;;;;;;0.00;0.00;;;;;28.85;41.70;101958.81;5035748;28;46523;-77
2023/09/14 01:25:45;;;;;;;;;0.67;0.67;;;;;28.89;41.38;101962.72;5035710;28;45306;-77
2023/09/14 01:28:13;;;;;;;;;0.67;0.00;;;;;28.90;41.05;101960.88;5035738;28;45282;-77
2023/09/14 01:30:39;;;;;;;;;0.00;0.00;;;;;28.83;41.23;101956.31;5035708;28;45424;-77
2023/09/14 01:33:08;;;;;;;;;1.67;1.00;;;;;28.86;41.57;101960.44;5035405;28;46088;-77
2023/09/14 01:35:57;;;;;;;;;0.00;0.00;;;;;28.79;41.53;101935.50;5035553;28;45371;-78
2023/09/14 01:38:25;;;;;;;;;0.33;0.33;;;;;28.89;41.44;101964.56;4954354;28;45303;-77
2023/09/14 01:40:51;;;;;;;;;1.00;1.00;;;;;28.88;41.82;101950.38;4954326;28;45506;-78
2023/09/14 01:43:17;;;;;;;;;0.00;0.00;;;;;28.81;41.48;101947.66;4937486;28;46390;-77
2023/09/14 01:45:42;;;;;;;;;1.00;1.00;;;;;28.81;41.47;101942.28;4954652;28;45446;-77
2023/09/14 01:48:14;;;;;;;;;0.00;0.00;;;;;28.87;41.73;101953.22;4954391;28;45402;-78
2023/09/14 01:50:39;;;;;;;;;1.00;1.00;;;;;28.80;41.77;101935.31;4954492;28;45321;-78
2023/09/14 01:53:05;;;;;;;;;0.00;0.00;;;;;28.76;41.35;101934.03;4954157;28;47190;-78
2023/09/14 01:55:30;;;;;;;;;1.00;1.00;;;;;28.83;41.60;101940.25;4954480;28;45414;-78
2023/09/14 01:57:55;;;;;;;;;0.00;0.00;;;;;28.73;41.34;101924.56;4954512;28;45461;-77
2023/09/14 02:00:21;;;;;;;;;0.00;0.00;;;;;28.78;41.71;101926.63;4954654;28;45363;-78
2023/09/14 02:02:46;;;;;;;;;1.00;0.00;;;;;28.74;41.58;101923.53;4961169;28;46413;-77
2023/09/14 02:05:11;;;;;;;;;1.00;1.00;;;;;28.85;41.15;101940.06;4973597;28;45865;-77
2023/09/14 02:07:37;;;;;;;;;0.00;0.00;;;;;28.83;41.31;101937.56;4974096;28;45350;-77
2023/09/14 02:10:02;;;;;;;;;1.00;1.00;;;;;28.85;41.53;101940.06;4974382;28;45478;-78
2023/09/14 02:12:28;;;;;;;;;1.33;1.00;;;;;28.86;41.31;101944.38;4977220;28;47395;-78
2023/09/14 02:14:53;;;;;;;;;1.00;1.00;;;;;28.87;41.06;101942.53;4992462;28;45431;-78
2023/09/14 02:17:19;;;;;;;;;2.33;1.00;;;;;28.76;41.25;101928.69;5038258;28;45272;-78
2023/09/14 02:19:44;;;;;;;;;0.00;0.00;;;;;28.82;41.55;101930.56;5038931;28;45411;-77
2023/09/14 02:22:10;;;;;;;;;0.33;0.33;;;;;28.84;41.49;101931.19;5038288;28;45489;-78
2023/09/14 02:24:35;;;;;;;;;0.33;0.00;;;;;28.81;41.64;101928.06;5038652;28;45477;-78
2023/09/14 02:27:00;;;;;;;;;1.33;0.00;;;;;28.85;41.43;101929.34;5037222;28;45314;-78
2023/09/14 02:29:26;;;;;;;;;2.00;1.00;;;;;28.88;41.69;101928.94;5038451;28;45568;-77
2023/09/14 02:31:51;;;;;;;;;1.33;0.00;;;;;28.86;41.57;101922.94;5036754;28;45427;-78
2023/09/14 02:34:16;;;;;;;;;1.00;1.00;;;;;28.83;41.35;101915.34;5038441;28;45299;-78
2023/09/14 02:36:42;;;;;;;;;1.00;1.00;;;;;28.73;41.59;101900.47;5038011;28;45281;-78
2023/09/14 02:39:07;;;;;;;;;0.00;0.00;;;;;28.80;41.12;101913.88;5038278;28;45610;-78
2023/09/14 02:41:32;;;;;;;;;1.00;1.00;;;;;28.85;41.43;101922.13;5038060;28;45596;-78
2023/09/14 02:43:58;;;;;;;;;2.00;1.00;;;;;28.85;41.56;101910.59;5037924;28;45390;-77
2023/09/14 02:46:23;;;;;;;;;2.00;0.67;;;;;28.81;41.48;101904.81;5038004;28;45569;-77
2023/09/14 02:48:49;;;;;;;;;0.33;0.33;;;;;28.83;41.32;101912.66;5038427;28;45324;-77
2023/09/14 02:51:14;;;;;;;;;1.00;1.00;;;;;28.79;41.37;101912.22;5038001;28;46403;-77
2023/09/14 02:53:40;;;;;;;;;1.00;1.00;;;;;28.84;41.01;101917.78;5036944;28;45313;-78
2023/09/14 02:56:09;;;;;;;;;0.00;0.00;;;;;28.84;41.63;101916.97;5038402;28;45317;-77
2023/09/14 02:58:34;;;;;;;;;0.00;0.00;;;;;28.81;41.43;101910.16;5037914;28;45331;-77
2023/09/14 03:01:06;;;;;;;;;1.00;0.00;;;;;28.83;41.15;101912.66;5037393;28;46328;-77
2023/09/14 03:03:31;;;;;;;;;0.00;0.00;;;;;28.82;41.26;101905.63;5037806;28;45528;-78
2023/09/14 03:05:56;;;;;;;;;1.00;1.00;;;;;28.81;41.83;101907.47;5038112;28;45806;-78
2023/09/14 03:08:22;;;;;;;;;0.67;0.00;;;;;28.77;41.36;101900.88;5036790;28;46169;-77
2023/09/14 03:10:47;;;;;;;;;0.00;0.00;;;;;28.83;41.30;101910.78;5037586;28;47599;-78
2023/09/14 03:13:12;;;;;;;;;1.00;1.00;;;;;28.82;41.21;101906.47;5019986;28;45512;-77
2023/09/14 03:15:38;;;;;;;;;1.00;1.00;;;;;28.85;40.96;101911.44;5037552;28;45459;-77
2023/09/14 03:18:04;;;;;;;;;1.00;1.00;;;;;28.86;41.56;101912.22;5019938;28;45566;-77
2023/09/14 03:20:29;;;;;;;;;0.33;0.00;;;;;28.83;41.28;101909.97;5037177;28;46198;-78
2023/09/14 03:22:54;;;;;;;;;0.33;0.33;;;;;28.83;41.59;101908.09;5035867;28;45406;-78
2023/09/14 03:25:20;;;;;;;;;0.00;0.00;;;;;28.84;41.39;101917.78;5037948;28;45242;-77
2023/09/14 03:27:47;;;;;;;;;1.00;1.00;;;;;28.81;41.27;101914.69;5037786;28;45472;-77
2023/09/14 03:30:13;;;;;;;;;0.00;0.00;;;;;28.77;41.36;101903.56;5037183;28;47364;-78
2023/09/14 03:32:38;;;;;;;;;0.00;0.00;;;;;28.79;41.42;101909.53;5037232;28;45411;-77
2023/09/14 03:35:04;;;;;;;;;1.00;1.00;;;;;28.82;41.00;101922.53;5037506;28;45266;-78
2023/09/14 03:37:29;;;;;;;;;0.00;0.00;;;;;28.82;41.72;101922.53;5037313;28;45600;-78
2023/09/14 03:39:55;;;;;;;;;1.00;0.00;;;;;28.78;41.49;101913.22;5037219;28;47326;-78
2023/09/14 03:42:20;;;;;;;;;1.00;0.00;;;;;28.82;41.63;101917.19;5026198;28;45293;-78
2023/09/14 03:44:45;;;;;;;;;0.00;0.00;;;;;28.86;41.58;101922.94;5030667;28;45721;-78
2023/09/14 03:47:11;;;;;;;;;0.33;0.00;;;;;28.84;41.08;101917.78;5037271;28;45587;-77
2023/09/14 03:49:36;;;;;;;;;2.00;0.00;;;;;28.77;41.27;101919.63;5036879;28;46851;-77
2023/09/14 03:52:02;;;;;;;;;1.67;1.00;;;;;28.73;41.50;101913.84;5037157;28;45392;-77
2023/09/14 03:54:27;;;;;;;;;1.00;1.00;;;;;28.62;41.33;101895.69;5019472;28;45380;-78
2023/09/14 03:56:52;;;;;;;;;0.00;0.00;;;;;28.78;41.62;101920.47;5019258;28;45361;-78
2023/09/14 03:59:18;;;;;;;;;0.33;0.33;;;;;28.74;41.66;101906.66;5036053;28;46643;-78
2023/09/14 04:01:43;;;;;;;;;1.00;1.00;;;;;28.80;41.48;101924.59;5036325;28;45324;-77
2023/09/14 04:04:08;;;;;;;;;0.33;0.33;;;;;28.82;41.37;101927.91;5036253;28;45417;-77
2023/09/14 04:06:34;;;;;;;;;1.00;1.00;;;;;28.78;41.29;101915.91;5037219;28;45400;-78
2023/09/14 04:08:59;;;;;;;;;0.00;0.00;;;;;28.78;41.32;101917.78;5036838;28;45442;-77
2023/09/14 04:11:25;;;;;;;;;0.00;0.00;;;;;28.77;41.51;101921.47;5018701;28;45482;-78
2023/09/14 04:13:50;;;;;;;;;1.00;1.00;;;;;28.84;41.51;101925.00;5036760;28;45392;-78
2023/09/14 04:16:15;;;;;;;;;1.00;1.00;;;;;28.84;41.19;101922.31;5037003;28;45361;-78
2023/09/14 04:18:41;;;;;;;;;0.00;0.00;;;;;28.81;41.33;101917.38;5036680;28;46272;-78
2023/09/14 04:21:06;;;;;;;;;2.00;1.00;;;;;28.81;41.37;101917.38;5036575;28;45356;-78
2023/09/14 04:23:32;;;;;;;;;0.00;0.00;;;;;28.83;41.39;101926.03;5036039;28;45418;-77
2023/09/14 04:26:01;;;;;;;;;0.67;0.67;;;;;28.81;40.94;101915.50;5035574;28;45447;-77
2023/09/14 04:28:27;;;;;;;;;0.00;0.00;;;;;28.81;40.91;101923.56;5034692;28;47712;-77
2023/09/14 04:30:57;;;;;;;;;1.00;1.00;;;;;28.79;41.16;101906.03;5035932;28;45427;-78
2023/09/14 04:33:24;;;;;;;;;0.33;0.33;;;;;28.80;41.10;101916.56;5036706;28;45225;-77
2023/09/14 04:35:54;;;;;;;;;1.67;0.67;;;;;28.83;40.96;101924.16;5018660;28;45443;-78
2023/09/14 04:38:20;;;;;;;;;1.33;0.00;;;;;28.75;41.41;101908.31;5036109;28;46234;-78
2023/09/14 04:40:47;;;;;;;;;1.00;1.00;;;;;28.82;41.06;101917.19;5018360;28;45358;-78
2023/09/14 04:43:14;;;;;;;;;0.00;0.00;;;;;28.78;41.53;101917.78;5018695;28;45463;-78
2023/09/14 04:45:39;;;;;;;;;0.00;0.00;;;;;28.78;41.50;101923.94;5036368;28;45336;-78
2023/09/14 04:48:05;;;;;;;;;0.00;0.00;;;;;28.81;41.67;101925.41;5036120;28;45385;-77
2023/09/14 04:50:30;;;;;;;;;1.00;1.00;;;;;28.78;41.17;101918.59;5036224;28;45453;-78
2023/09/14 04:52:56;;;;;;;;;0.33;0.33;;;;;28.82;41.01;101937.78;5036446;28;45579;-78
2023/09/14 04:55:22;;;;;;;;;1.00;1.00;;;;;28.77;41.58;101933.03;5036449;28;45330;-78
2023/09/14 04:57:47;;;;;;;;;0.00;0.00;;;;;28.84;41.40;101941.06;5035843;28;45841;-78
2023/09/14 05:00:13;;;;;;;;;0.00;0.00;;;;;28.78;41.19;101928.50;5018282;28;45314;-78
2023/09/14 05:02:39;;;;;;;;;0.00;0.00;;;;;28.81;41.59;101934.25;5035572;28;45475;-78
2023/09/14 05:05:06;;;;;;;;;1.00;1.00;;;;;28.77;41.50;101925.00;5036174;28;45273;-77
2023/09/14 05:07:32;;;;;;;;;1.00;1.00;;;;;28.81;41.15;101934.25;5036023;28;47322;-78
2023/09/14 05:09:57;;;;;;;;;2.67;0.00;;;;;28.76;41.48;101928.69;5035927;28;45247;-77
2023/09/14 05:12:22;;;;;;;;;0.00;0.00;;;;;28.82;41.50;101946.63;5035588;28;45399;-78
2023/09/14 05:14:48;;;;;;;;;0.00;0.00;;;;;28.80;41.75;101943.34;5035738;28;45637;-78
2023/09/14 05:17:13;;;;;;;;;0.00;0.00;;;;;28.83;41.58;101937.56;5033976;28;47232;-78
2023/09/14 05:19:45;;;;;;;;;1.00;1.00;;;;;28.80;41.24;101931.81;5035669;28;45349;-77
2023/09/14 05:22:10;;;;;;;;;0.33;0.33;;;;;28.78;41.34;101934.66;5017994;28;45398;-78
2023/09/14 05:24:38;;;;;;;;;1.00;1.00;;;;;28.77;41.15;101921.47;5035733;28;45511;-77
2023/09/14 05:27:04;;;;;;;;;0.00;0.00;;;;;28.75;41.50;101929.72;5034102;28;46640;-77
2023/09/14 05:29:29;;;;;;;;;2.00;1.33;;;;;28.76;41.21;101931.34;5034573;28;45317;-78
2023/09/14 05:31:54;;;;;;;;;1.00;1.00;;;;;28.78;41.48;101925.81;5035853;28;45376;-78
2023/09/14 05:34:20;;;;;;;;;0.00;0.00;;;;;28.78;41.12;101931.19;5035114;28;45589;-78
2023/09/14 05:36:45;;;;;;;;;0.67;0.67;;;;;28.73;41.20;101921.88;5034641;28;45460;-78
2023/09/14 05:39:12;;;;;;;;;2.00;1.00;;;;;28.79;41.28;101935.50;5035300;28;45302;-78
2023/09/14 05:41:40;;;;;;;;;1.33;1.00;;;;;28.76;41.53;101930.53;5029543;28;45451;-79
2023/09/14 05:44:08;;;;;;;;;1.00;0.67;;;;;28.74;41.34;101928.91;5023533;28;45477;-78
2023/09/14 05:46:33;;;;;;;;;1.33;0.33;;;;;28.81;41.25;101946.81;5037986;28;46536;-78
2023/09/14 05:48:58;;;;;;;;;0.33;0.33;;;;;28.75;40.96;101929.72;5039035;28;45319;-78
2023/09/14 05:51:23;;;;;;;;;0.00;0.00;;;;;28.76;41.02;101935.88;5039214;28;45237;-78
2023/09/14 05:53:49;;;;;;;;;1.00;1.00;;;;;28.80;41.49;101931.81;5039048;28;45277;-78
2023/09/14 05:56:14;;;;;;;;;0.33;0.33;;;;;28.77;40.94;101932.19;5038571;28;50748;-78
2023/09/14 05:58:39;;;;;;;;;0.33;0.33;;;;;28.84;41.13;101947.25;5038881;28;45271;-78
2023/09/14 06:01:05;;;;;;;;;2.00;1.00;;;;;28.84;41.26;101943.75;5020806;28;45270;-77
2023/09/14 06:03:30;;;;;;;;;0.33;0.33;;;;;28.87;41.14;101947.88;5038759;28;45360;-78
2023/09/14 06:05:56;;;;;;;;;1.00;1.00;;;;;28.88;41.25;101947.69;5038600;28;46049;-77
2023/09/14 06:08:21;;;;;;;;;1.00;1.00;;;;;28.92;40.86;101948.09;5009045;28;45448;-78
2023/09/14 06:10:46;;;;;;;;;0.33;0.33;;;;;28.95;41.11;101945.03;4998615;28;45381;-78
2023/09/14 06:13:12;;;;;;;;;0.33;0.00;;;;;28.96;40.59;101939.47;4998016;28;45499;-80
2023/09/14 06:15:37;;;;;;;;;3.00;3.00;;;;;28.72;37.58;101927.44;4980766;28;45604;-74
2023/09/14 06:18:03;;;;;;;;;8.00;3.00;;;;;28.46;36.65;101951.22;4998605;28;45389;-78
2023/09/14 06:20:28;;;;;;;;;4.67;3.00;;;;;28.07;37.02;101940.03;4990124;28;45437;-80
2023/09/14 06:22:53;;;;;;;;;3.00;3.00;;;;;27.82;37.89;101954.66;5010610;28;45507;-78
2023/09/14 06:25:20;;;;;;;;;4.00;4.00;;;;;27.55;37.62;101956.25;4995874;28;47326;-80
2023/09/14 06:27:45;;;;;;;;;3.67;3.67;;;;;27.37;37.62;101960.19;5020043;28;45832;-78
2023/09/14 06:30:11;;;;;;;;;2.00;2.00;;;;;27.21;37.99;101956.75;4991298;28;45920;-84
2023/09/14 06:32:36;;;;;;;;;4.00;3.00;;;;;27.10;38.19;101952.69;4979868;28;45380;-77
2023/09/14 06:35:01;;;;;;;;;3.67;3.67;;;;;27.01;37.49;101959.97;4997446;28;45677;-74
2023/09/14 06:37:27;;;;;;;;;3.00;3.00;;;;;26.90;37.96;101957.81;4997246;28;45360;-76
2023/09/14 06:39:53;;;;;;;;;3.33;3.00;;;;;26.80;38.02;101961.59;5006752;28;45271;-76
2023/09/14 06:42:19;;;;;;;;;2.67;2.33;;;;;26.69;38.55;101954.88;4988620;28;45318;-79
2023/09/14 06:44:44;;;;;;;;;2.00;2.00;;;;;26.65;38.50;101963.44;4987138;28;47846;-77
2023/09/14 06:47:09;;;;;;;;;4.00;2.00;;;;;26.73;38.87;101958.00;4998396;28;45385;-77
2023/09/14 06:49:35;;;;;;;;;2.67;1.33;;;;;26.88;38.92;101959.84;4983873;28;45492;-78
2023/09/14 06:52:00;;;;;;;;;4.00;2.00;;;;;27.00;38.38;101962.84;4994634;28;45429;-77
2023/09/14 06:54:25;;;;;;;;;3.00;2.00;;;;;27.12;38.89;101960.50;5016545;28;46333;-78
2023/09/14 06:56:51;;;;;;;;;3.67;2.33;;;;;27.24;38.15;101953.69;5015579;28;45769;-78
2023/09/14 06:59:17;;;;;;;;;3.00;3.00;;;;;27.42;38.90;101964.97;5010108;28;45767;-78
2023/09/14 07:01:42;;;;;;;;;1.00;1.00;;;;;27.51;38.11;101964.66;5015648;28;45573;-78
2023/09/14 07:04:08;;;;;;;;;2.00;2.00;;;;;27.63;38.98;101967.66;5032265;28;47397;-78
2023/09/14 07:06:33;;;;;;;;;2.00;2.00;;;;;27.71;38.92;101964.00;5035582;28;45426;-78
2023/09/14 07:08:59;;;;;;;;;1.67;1.67;;;;;27.75;38.80;101956.44;5036267;28;45743;-78
2023/09/14 07:11:25;;;;;;;;;2.33;1.00;;;;;27.91;38.84;101967.91;5034273;28;45610;-78
2023/09/14 07:13:50;;;;;;;;;2.00;2.00;;;;;27.96;38.56;101968.16;5037629;28;45591;-78
2023/09/14 07:16:16;;;;;;;;;3.67;2.67;;;;;28.05;38.55;101968.84;5036173;28;45408;-78
2023/09/14 07:18:41;;;;;;;;;2.00;1.00;;;;;28.11;38.59;101968.03;5035267;28;45491;-78
2023/09/14 07:21:07;;;;;;;;;1.00;1.00;;;;;28.17;38.12;101964.59;5035624;28;45445;-78
2023/09/14 07:23:32;;;;;;;;;2.00;2.00;;;;;28.30;38.10;101973.72;5036200;28;46688;-78
2023/09/14 07:25:57;;;;;;;;;3.00;2.00;;;;;28.38;38.03;101978.09;5040899;28;45459;-77
2023/09/14 07:28:23;;;;;;;;;1.33;1.33;;;;;28.41;38.10;101972.38;5038455;28;45427;-79
2023/09/14 07:30:49;;;;;;;;;1.67;1.67;;;;;28.52;38.68;101971.03;5036847;28;45385;-78
2023/09/14 07:33:16;;;;;;;;;1.67;1.67;;;;;28.56;38.39;101976.78;5035972;28;46297;-77
2023/09/14 07:35:42;;;;;;;;;1.00;1.00;;;;;28.60;38.74;101976.19;5034545;28;45784;-78
2023/09/14 07:38:09;;;;;;;;;4.33;1.00;;;;;28.66;38.46;101971.91;5036033;28;45465;-78
2023/09/14 07:40:35;;;;;;;;;2.00;2.00;;;;;28.68;37.95;101971.69;5036729;28;45471;-78
2023/09/14 07:43:01;;;;;;;;;2.00;2.00;;;;;28.72;38.22;101960.41;5037605;28;45557;-78
2023/09/14 07:45:29;;;;;;;;;1.67;1.67;;;;;28.85;38.37;101972.19;5036646;28;45455;-78
2023/09/14 07:47:55;;;;;;;;;2.00;2.00;;;;;28.83;38.76;101972.38;5036237;28;45568;-78
2023/09/14 07:50:20;;;;;;;;;5.00;2.00;;;;;28.86;38.36;101963.13;5035297;28;45332;-79
2023/09/14 07:52:45;;;;;;;;;1.00;1.00;;;;;28.95;37.90;101971.81;5036358;28;45377;-79
2023/09/14 07:55:11;;;;;;;;;1.67;1.33;;;;;28.98;38.21;101968.75;5035798;28;45393;-79
2023/09/14 07:57:36;;;;;;;;;1.33;1.33;;;;;29.02;37.93;101969.97;5034959;28;45436;-79
2023/09/14 08:00:01;;;;;;;;;1.33;1.33;;;;;29.10;37.96;101977.03;5035447;28;45444;-79
2023/09/14 08:02:27;;;;;;;;;5.00;1.33;;;;;29.10;38.36;101970.84;5033289;28;45475;-79
2023/09/14 08:04:52;;;;;;;;;4.00;1.00;;;;;29.18;38.31;101971.50;5035212;28;45521;-78
2023/09/14 08:07:18;;;;;;;;;1.33;1.33;;;;;29.22;38.43;101987.19;5034702;28;45767;-78
2023/09/14 08:09:46;;;;;;;;;3.00;1.67;;;;;29.13;38.44;101965.09;5033356;28;45458;-78
2023/09/14 08:12:11;;;;;;;;;2.00;2.00;;;;;29.29;38.36;101980.81;5033801;28;47307;-78
2023/09/14 08:14:37;;;;;;;;;1.67;1.67;;;;;29.31;38.26;101980.59;5034853;28;45337;-78
2023/09/14 08:17:02;;;;;;;;;3.00;2.00;;;;;29.33;38.11;101972.38;5035663;28;45689;-78
2023/09/14 08:19:28;;;;;;;;;1.00;1.00;;;;;29.42;38.14;101981.88;5034868;28;45326;-78
2023/09/14 08:21:53;;;;;;;;;2.00;2.00;;;;;29.38;38.19;101975.28;5034940;28;45499;-78
2023/09/14 08:24:18;;;;;;;;;2.00;2.00;;;;;29.45;38.11;101984.16;5034204;28;45475;-79
2023/09/14 08:26:44;;;;;;;;;2.67;1.00;;;;;29.44;38.33;101971.75;5034390;28;45482;-79
2023/09/14 08:29:10;;;;;;;;;2.00;2.00;;;;;29.56;38.15;101987.25;5035429;28;45453;-79
2023/09/14 08:31:37;;;;;;;;;2.00;2.00;;;;;29.56;38.08;101981.88;5034945;28;46771;-79
2023/09/14 08:34:02;;;;;;;;;1.00;1.00;;;;;29.60;38.12;101983.13;5034139;28;45504;-79
2023/09/14 08:36:28;;;;;;;;;1.33;1.33;;;;;29.58;38.05;101977.13;5035084;28;45654;-79
2023/09/14 08:38:53;;;;;;;;;1.67;1.33;;;;;29.62;38.33;101984.56;5034802;28;45742;-79
2023/09/14 08:41:33;;;;;;;;;1.00;1.00;;;;;29.68;38.14;101987.47;5034763;28;46577;-79
2023/09/14 08:44:01;;;;;;;;;1.00;1.00;;;;;29.68;38.22;101984.78;5034650;28;45447;-79
2023/09/14 08:46:27;;;;;;;;;2.33;0.33;;;;;29.66;38.29;101985.00;5034684;28;45506;-80
2023/09/14 08:48:54;;;;;;;;;4.00;2.00;;;;;29.73;38.13;101991.22;5034027;28;45662;-79
2023/09/14 08:51:21;;;;;;;;;1.33;1.33;;;;;29.78;38.44;101995.13;5034049;28;46420;-77
2023/09/14 08:53:47;;;;;;;;;1.00;1.00;;;;;29.74;38.34;101990.16;5034457;28;45557;-79
2023/09/14 08:56:14;;;;;;;;;3.00;1.33;;;;;29.82;38.13;101994.50;5033333;28;45527;-79
2023/09/14 08:58:40;;;;;;;;;1.67;0.67;;;;;29.86;38.15;101997.59;5032860;28;45452;-79
2023/09/14 09:01:09;;;;;;;;;3.67;2.67;;;;;29.87;38.05;101999.25;5031980;28;47327;-79
2023/09/14 09:03:34;;;;;;;;;4.00;1.00;;;;;29.85;38.07;102001.31;5032482;28;45419;-79
2023/09/14 09:06:01;;;;;;;;;1.00;1.00;;;;;29.91;37.57;102005.03;5033179;28;45483;-78
2023/09/14 09:08:28;;;;;;;;;4.00;1.33;;;;;29.89;38.35;101993.69;5032566;28;45522;-79
2023/09/14 09:10:53;;;;;;;;;3.00;3.00;;;;;29.89;38.25;101999.88;5031425;28;45845;-79
2023/09/14 09:13:19;;;;;;;;;1.00;1.00;;;;;29.90;37.92;101998.03;5034471;28;45443;-78
2023/09/14 09:15:44;;;;;;;;;2.00;2.00;;;;;30.00;37.87;102011.03;5034588;28;45526;-78
2023/09/14 09:18:11;;;;;;;;;2.33;1.33;;;;;29.96;38.35;102000.69;5032211;28;45673;-78
2023/09/14 09:20:40;;;;;;;;;3.00;1.67;;;;;30.02;37.98;102003.59;5036947;28;46552;-78
2023/09/14 09:23:06;;;;;;;;;2.67;1.67;;;;;30.01;38.13;102000.06;5035616;28;45462;-79
2023/09/14 09:25:49;;;;;;;;;3.00;1.67;;;;;29.97;38.15;101993.47;5034123;28;45397;-79
2023/09/14 09:28:14;;;;;;;;;1.00;1.00;;;;;30.02;37.92;101996.38;5033891;28;45689;-78
2023/09/14 09:30:40;;;;;;;;;1.33;1.33;;;;;30.02;38.05;101992.84;5033285;28;45492;-78
2023/09/14 09:33:05;;;;;;;;;1.00;1.00;;;;;30.01;38.30;101988.50;5033642;28;45438;-78
2023/09/14 09:35:32;;;;;;;;;2.00;2.00;;;;;29.98;38.00;101981.69;5033900;28;45432;-78
2023/09/14 09:37:58;;;;;;;;;1.00;1.00;;;;;30.06;38.05;101989.53;5033999;28;45470;-79
2023/09/14 09:40:31;;;;;;;;;2.00;1.67;;;;;30.02;38.55;101977.59;5033949;28;46061;-79
2023/09/14 09:43:02;;;;;;;;;2.00;1.33;;;;;30.05;38.21;101987.06;5033623;28;45655;-79
2023/09/14 09:45:28;;;;;;;;;2.00;2.00;;;;;30.07;38.16;101993.06;5033508;28;45560;-79
2023/09/14 09:47:54;;;;;;;;;2.67;2.67;;;;;30.07;38.72;101985.00;5032906;28;45618;-79
2023/09/14 09:50:21;;;;;;;;;3.00;2.00;;;;;30.06;38.60;101986.03;5033039;28;46799;-78
2023/09/14 09:52:47;;;;;;;;;2.00;1.67;;;;;30.08;38.25;101986.66;5032872;28;45526;-79
2023/09/14 09:55:23;;;;;;;;;1.67;1.67;;;;;30.09;38.53;101974.06;5033426;28;45502;-79
2023/09/14 09:57:59;;;;;;;;;2.00;2.00;;;;;30.11;38.57;101988.91;5015634;28;45365;-78
2023/09/14 10:00:36;;;;;;;;;2.00;2.00;;;;;30.11;38.29;101985.44;5033513;28;45903;-79
2023/09/14 10:03:03;;;;;;;;;0.67;0.67;;;;;30.10;38.63;101984.59;5032024;28;45446;-79
2023/09/14 10:05:40;;;;;;;;;2.00;2.00;;;;;30.03;38.82;101959.63;5066076;28;45774;-79
2023/09/14 10:08:14;;;;;;;;;3.00;3.00;;;;;30.10;38.46;101978.41;5031626;28;45377;-79
2023/09/14 10:10:40;;;;;;;;;2.00;2.00;;;;;30.05;38.78;101977.19;5031649;28;45618;-78
2023/09/14 10:13:06;;;;;;;;;3.33;1.00;;;;;30.05;38.93;101962.94;5031169;28;45803;-79
2023/09/14 10:15:32;;;;;;;;;2.00;2.00;;;;;30.00;38.75;101960.88;5033192;28;45388;-78
2023/09/14 10:17:58;;;;;;;;;1.67;1.67;;;;;30.03;38.79;101960.44;5033281;28;45398;-79
2023/09/14 10:20:25;;;;;;;;;2.33;1.67;;;;;30.05;39.17;101968.28;5032871;28;45407;-79
2023/09/14 10:22:51;;;;;;;;;3.00;2.00;;;;;30.06;39.29;101967.25;5033137;28;45436;-79
2023/09/14 10:25:19;;;;;;;;;1.00;1.00;;;;;30.02;38.97;101961.50;5033280;28;45412;-79
2023/09/14 10:27:44;;;;;;;;;2.00;2.00;;;;;30.03;38.71;101959.63;5033402;28;45531;-79
2023/09/14 10:30:20;;;;;;;;;2.00;1.00;;;;;30.02;38.96;101964.16;5032300;28;45933;-79
2023/09/14 10:32:53;;;;;;;;;3.00;1.67;;;;;30.00;38.69;101949.31;5035518;28;45470;-78
2023/09/14 10:35:18;;;;;;;;;2.33;2.33;;;;;30.02;38.90;101958.81;5036422;28;45636;-79
2023/09/14 10:37:45;;;;;;;;;2.00;2.00;;;;;29.99;39.01;101953.84;5036514;28;45677;-80
2023/09/14 10:40:12;;;;;;;;;1.33;1.33;;;;;30.03;38.80;101956.94;5036046;28;46919;-76
2023/09/14 10:42:39;;;;;;;;;2.00;1.67;;;;;30.00;38.83;101947.47;5032297;28;45461;-79
2023/09/14 10:45:05;;;;;;;;;4.67;3.00;;;;;29.94;39.13;101935.69;5035656;28;46204;-80
2023/09/14 10:47:36;;;;;;;;;3.00;2.00;;;;;30.02;38.84;101941.88;5025230;28;45476;-78
2023/09/14 10:50:04;;;;;;;;;4.00;4.00;;;;;30.00;38.85;101943.94;5029107;28;45482;-78
2023/09/14 10:52:30;;;;;;;;;5.33;5.33;;;;;29.94;38.54;101935.69;5035522;28;45634;-79
2023/09/14 10:54:56;;;;;;;;;7.00;6.00;;;;;29.91;38.18;101935.28;5035993;28;45577;-80
2023/09/14 10:57:24;;;;;;;;;4.67;4.67;;;;;29.93;37.88;101939.41;5035681;28;45570;-79
2023/09/14 10:59:54;;;;;;;;;7.00;5.67;;;;;29.88;37.69;101933.84;5027687;28;46122;-78
2023/09/14 11:02:55;;;;;;;;;6.67;6.67;;;;;29.85;37.71;101926.19;5040227;28;45417;-78
2023/09/14 11:05:40;;;;;;;;;8.00;7.00;;;;;29.82;37.38;101930.13;4957887;28;45467;-78
2023/09/14 11:08:06;;;;;;;;;8.00;4.67;;;;;29.78;37.36;101923.53;4973634;28;45656;-78
2023/09/14 11:10:34;;;;;;;;;7.33;6.00;;;;;29.70;36.84;101916.50;4973383;28;46383;-78
2023/09/14 11:13:21;;;;;;;;;4.00;4.00;;;;;29.74;36.54;101919.63;4973005;28;45395;-78
2023/09/14 11:15:53;;;;;;;;;3.67;3.67;;;;;29.68;36.43;101907.84;4971627;28;45545;-78
2023/09/14 11:18:19;;;;;;;;;3.67;3.67;;;;;29.64;36.89;101903.91;4972448;28;45561;-78
2023/09/14 11:20:45;;;;;;;;;4.67;4.67;;;;;29.65;36.66;101908.25;4973066;28;46254;-77
2023/09/14 11:23:10;;;;;;;;;6.33;6.00;;;;;29.66;36.63;101909.91;4970322;28;45549;-77